Time;durP1;ratioP1;P1;durP2;ratioP2;P2;SDS_P1;SDS_P2;PMS_P1;PMS_P2;Temp;Humidity;BMP_temperature;BMP_pressure;BME280_temperature;BME280_humidity;BME280_pressure;Samples;Min_cycle;Max_cycle;Signal;HPM_P1;HPM_P2
2021/12/19 00:00:09;;;;;;;5.93;3.28;;;;;;;-1.50;87.63;97682.97;4850303;29;20041;-59
2021/12/19 00:03:32;;;;;;;3.20;2.88;;;;;;;-1.31;87.15;97674.41;4849919;29;20047;-56
2021/12/19 00:10:53;;;;;;;3.45;2.72;;;;;;;-0.94;86.01;97648.72;4849680;29;20462;-57
2021/12/19 00:13:19;;;;;;;3.70;2.80;;;;;;;-1.00;86.15;97640.31;4849985;29;20074;-56
2021/12/19 00:15:45;;;;;;;4.05;2.95;;;;;;;-1.05;85.20;97643.72;4851241;29;20304;-56
2021/12/19 00:18:10;;;;;;;3.70;2.67;;;;;;;-1.03;85.99;97638.63;4850346;29;20041;-56
2021/12/19 00:20:36;;;;;;;3.22;2.50;;;;;;;-0.98;86.08;97634.38;4834148;29;20025;-57
2021/12/19 00:23:02;;;;;;;3.15;2.70;;;;;;;-1.01;86.15;97628.44;4850324;29;20037;-57
2021/12/19 00:25:28;;;;;;;2.40;2.20;;;;;;;-0.98;86.56;97613.19;4850290;29;20222;-57
2021/12/19 00:27:53;;;;;;;2.60;2.10;;;;;;;-0.88;85.62;97614.81;4850224;29;20223;-58
2021/12/19 00:30:19;;;;;;;3.40;2.40;;;;;;;-0.89;84.81;97597.88;4850167;29;20318;-57
2021/12/19 00:32:44;;;;;;;4.20;2.80;;;;;;;-1.00;85.63;97594.59;4849265;29;20034;-58
2021/12/19 00:35:10;;;;;;;3.85;2.72;;;;;;;-1.02;86.24;97583.63;4850038;29;20319;-57
2021/12/19 00:37:36;;;;;;;3.60;2.33;;;;;;;-1.08;86.62;97564.19;4850106;29;20155;-57
2021/12/19 00:40:03;;;;;;;4.35;2.50;;;;;;;-0.95;86.75;97560.66;4850181;29;20037;-57
2021/12/19 00:42:35;;;;;;;2.03;1.80;;;;;;;-1.44;85.96;97511.19;4848893;29;20139;-59
2021/12/19 00:45:19;;;;;;;3.42;2.92;;;;;;;-1.05;86.45;97554.00;4849989;29;20046;-56
2021/12/19 00:47:45;;;;;;;3.42;2.45;;;;;;;-0.85;86.33;97530.94;4850149;29;20071;-58
2021/12/19 00:50:13;;;;;;;2.85;2.08;;;;;;;-0.84;86.49;97522.44;4849162;29;20096;-58
2021/12/19 00:52:39;;;;;;;3.13;2.60;;;;;;;-0.76;86.46;97515.56;4849743;29;20053;-58
2021/12/19 00:55:06;;;;;;;2.67;2.20;;;;;;;-0.73;84.91;97509.59;4833802;29;20038;-58
2021/12/19 00:57:32;;;;;;;3.90;2.47;;;;;;;-0.85;85.87;97500.44;4850025;29;20128;-58
2021/12/19 00:59:57;;;;;;;2.95;2.53;;;;;;;-0.91;85.52;97491.19;4850028;29;20087;-58
2021/12/19 01:02:23;;;;;;;3.10;2.15;;;;;;;-0.84;85.52;97481.81;4851171;29;20026;-57
2021/12/19 01:04:50;;;;;;;3.67;2.60;;;;;;;-0.88;86.72;97475.06;4849732;29;20257;-58
2021/12/19 01:07:15;;;;;;;3.63;2.42;;;;;;;-0.96;86.16;97454.81;4849687;29;20069;-57
2021/12/19 01:09:41;;;;;;;2.88;2.30;;;;;;;-0.84;86.10;97460.63;4849802;29;20057;-58
2021/12/19 01:12:11;;;;;;;3.58;2.13;;;;;;;-0.95;85.23;97420.94;4849965;29;20349;-58
2021/12/19 01:14:37;;;;;;;2.25;1.90;;;;;;;-0.92;85.47;97438.69;4852536;29;20125;-57
2021/12/19 01:17:04;;;;;;;3.42;1.90;;;;;;;-1.02;86.40;97434.56;4852057;29;20032;-57
2021/12/19 01:19:30;;;;;;;3.17;2.05;;;;;;;-0.96;86.26;97424.34;4853274;29;20037;-58
2021/12/19 01:21:56;;;;;;;2.33;2.05;;;;;;;-0.90;86.66;97403.09;4838649;29;20070;-58
2021/12/19 01:24:21;;;;;;;2.47;2.05;;;;;;;-0.82;86.46;97406.38;4853112;29;20034;-57
2021/12/19 01:26:47;;;;;;;2.60;1.90;;;;;;;-0.88;87.35;97389.53;4853067;29;20086;-58
2021/12/19 01:29:13;;;;;;;2.33;1.90;;;;;;;-0.73;86.22;97383.41;4852675;29;20045;-57
2021/12/19 01:31:39;;;;;;;2.45;1.90;;;;;;;-0.65;86.11;97379.91;4853249;29;20070;-57
2021/12/19 01:34:05;;;;;;;2.20;2.00;;;;;;;-0.81;85.84;97369.97;4852977;29;20030;-57
2021/12/19 01:36:31;;;;;;;3.33;1.90;;;;;;;-0.86;86.39;97369.19;4837372;29;20049;-56
2021/12/19 01:38:56;;;;;;;3.13;2.10;;;;;;;-0.85;86.39;97357.31;4852636;29;20082;-57
2021/12/19 01:41:22;;;;;;;3.47;1.98;;;;;;;-0.75;86.67;97348.72;4852748;29;20036;-56
2021/12/19 01:43:48;;;;;;;3.05;2.00;;;;;;;-0.96;86.33;97344.75;4853776;29;20036;-56
2021/12/19 01:46:13;;;;;;;2.72;1.83;;;;;;;-0.92;86.01;97329.44;4851632;29;20072;-56
2021/12/19 01:48:40;;;;;;;2.60;2.08;;;;;;;-0.88;86.38;97320.94;4835941;29;20085;-58
2021/12/19 01:51:06;;;;;;;3.30;2.20;;;;;;;-0.81;86.70;97313.22;4852723;29;20044;-57
2021/12/19 01:53:32;;;;;;;3.05;2.00;;;;;;;-0.98;85.78;97309.22;4852725;29;20061;-58
2021/12/19 01:55:58;;;;;;;2.72;1.60;;;;;;;-0.80;84.90;97302.19;4852622;29;20042;-58
2021/12/19 01:58:24;;;;;;;2.70;1.60;;;;;;;-0.89;85.56;97281.13;4852316;29;20272;-58
2021/12/19 02:00:56;;;;;;;1.63;1.50;;;;;;;-1.09;86.14;97252.66;4836613;29;20032;-58
2021/12/19 02:03:21;;;;;;;;;;;;;;;-1.05;86.28;97223.81;4852642;29;20037;-57
2021/12/19 02:05:48;;;;;;;1.90;1.70;;;;;;;-0.78;85.77;97254.75;4852451;29;19923;-56
2021/12/19 02:08:14;;;;;;;1.67;1.38;;;;;;;-1.06;85.61;97243.28;4852396;29;20044;-57
2021/12/19 02:10:41;;;;;;;1.98;1.60;;;;;;;-0.99;85.56;97250.81;4852402;29;20050;-57
2021/12/19 02:13:10;;;;;;;2.03;1.65;;;;;;;-1.12;86.31;97232.41;4852181;29;20038;-57
2021/12/19 02:15:36;;;;;;;2.13;1.77;;;;;;;-1.05;87.49;97228.91;4836812;29;20034;-57
2021/12/19 02:18:10;;;;;;;1.90;1.70;;;;;;;-1.05;87.50;97203.50;4851948;29;20029;-57
2021/12/19 02:20:39;;;;;;;2.30;1.50;;;;;;;-1.10;87.11;97220.50;4852307;29;20037;-57
2021/12/19 02:23:05;;;;;;;1.50;1.40;;;;;;;-0.97;87.21;97193.22;4851927;29;20077;-57
2021/12/19 02:25:31;;;;;;;2.00;1.50;;;;;;;-1.04;87.43;97164.56;4850409;29;20026;-57
2021/12/19 02:27:57;;;;;;;2.17;1.60;;;;;;;-0.85;86.71;97170.16;4835731;29;20280;-57
2021/12/19 02:30:22;;;;;;;2.20;1.83;;;;;;;-0.93;86.95;97169.44;4836588;29;20065;-57
2021/12/19 02:32:48;;;;;;;2.58;1.88;;;;;;;-0.90;86.51;97155.00;4851927;29;20038;-57
2021/12/19 02:35:20;;;;;;;1.67;1.45;;;;;;;-1.03;86.47;97140.81;4851460;29;20030;-56
2021/12/19 02:48:47;;;;;;;4.20;1.90;;;;;;;-0.93;85.99;97103.41;4852661;29;20230;-56
2021/12/19 02:51:13;;;;;;;3.45;1.90;;;;;;;-1.01;85.93;97095.91;4851659;29;20021;-57
2021/12/19 02:53:41;;;;;;;5.05;1.92;;;;;;;-1.05;86.47;97110.34;4851598;29;20267;-57
2021/12/19 02:56:10;;;;;;;4.25;2.38;;;;;;;-0.97;86.71;97102.63;4851878;29;20038;-57
2021/12/19 02:58:38;;;;;;;2.97;2.03;;;;;;;-1.31;86.04;97014.34;4851357;29;20215;-57
2021/12/19 03:01:07;;;;;;;3.63;2.15;;;;;;;-1.12;85.76;97055.47;4851210;29;20030;-57
2021/12/19 03:03:33;;;;;;;4.60;2.00;;;;;;;-0.95;86.94;97067.88;4851162;29;20037;-57
2021/12/19 03:05:58;;;;;;;2.78;1.92;;;;;;;-0.95;85.73;97056.88;4851257;29;20046;-58
2021/12/19 03:08:24;;;;;;;3.53;2.03;;;;;;;-0.87;85.99;97053.31;4851320;29;20026;-58
2021/12/19 03:17:56;;;;;;;3.28;1.90;;;;;;;-0.84;86.03;97043.97;4851516;29;20282;-57
2021/12/19 03:19:05;;;;;;;1.80;1.60;;;;;;;-0.91;86.30;97023.75;4850767;29;20032;-57
2021/12/19 03:21:31;;;;;;;3.33;1.98;;;;;;;-0.84;86.63;97008.41;4851256;29;20038;-58
2021/12/19 03:23:56;;;;;;;2.38;2.00;;;;;;;-0.78;85.86;97018.47;4851891;29;20045;-58
2021/12/19 03:26:22;;;;;;;2.53;1.75;;;;;;;-0.91;86.48;97003.44;4835683;29;20241;-58
2021/12/19 03:28:47;;;;;;;2.80;1.88;;;;;;;-0.74;86.97;97004.78;4850612;29;20040;-58
2021/12/19 03:31:13;;;;;;;1.58;1.48;;;;;;;-0.92;86.28;96991.59;4850737;29;20029;-57
2021/12/19 03:33:39;;;;;;;1.85;1.60;;;;;;;-0.86;85.78;96998.25;4847132;29;20244;-57
2021/12/19 03:36:06;;;;;;;3.33;2.08;;;;;;;-0.81;86.21;96993.09;4850780;29;20034;-57
2021/12/19 03:38:37;;;;;;;2.92;1.60;;;;;;;-0.71;85.56;96985.25;4849694;29;20033;-57
2021/12/19 03:41:19;;;;;;;2.55;1.80;;;;;;;-0.70;86.77;96968.28;4849907;29;20046;-57
2021/12/19 03:43:46;;;;;;;2.65;1.95;;;;;;;-0.81;86.03;96973.63;4851330;29;20037;-58
2021/12/19 03:46:12;;;;;;;2.47;1.83;;;;;;;-0.90;86.28;96959.41;4850784;29;20044;-58
2021/12/19 03:48:37;;;;;;;3.50;1.98;;;;;;;-0.74;86.73;96951.44;4850609;29;20051;-58
2021/12/19 03:51:03;;;;;;;6.53;2.30;;;;;;;-0.78;86.63;96948.13;4835763;29;20029;-58
2021/12/19 03:53:29;;;;;;;4.10;1.80;;;;;;;-0.81;86.95;96932.13;4851618;29;20085;-58
2021/12/19 03:55:54;;;;;;;1.90;1.80;;;;;;;-0.63;86.55;96936.81;4851235;29;20029;-58
2021/12/19 03:58:20;;;;;;;2.22;1.90;;;;;;;-0.63;86.80;96931.72;4851208;29;20030;-57
2021/12/19 04:00:47;;;;;;;3.22;1.90;;;;;;;-0.57;86.68;96926.53;4850756;29;20044;-57
2021/12/19 04:03:19;;;;;;;1.90;1.70;;;;;;;-0.67;85.72;96914.03;4850787;29;20041;-58
2021/12/19 04:05:50;;;;;;;2.63;1.85;;;;;;;-0.55;86.28;96909.53;4850984;29;20054;-57
2021/12/19 04:08:17;;;;;;;2.45;2.10;;;;;;;-0.59;86.39;96907.91;4845910;29;20323;-57
2021/12/19 04:10:43;;;;;;;3.50;2.15;;;;;;;-0.59;86.40;96907.09;4847312;29;20234;-56
2021/12/19 04:13:09;;;;;;;4.53;2.25;;;;;;;-0.58;85.62;96894.34;4834940;29;20322;-56
2021/12/19 04:15:35;;;;;;;2.22;1.60;;;;;;;-0.64;85.58;96891.09;4834731;29;20038;-58
2021/12/19 04:18:01;;;;;;;2.35;1.98;;;;;;;-0.58;87.16;96870.66;4851146;29;20033;-58
2021/12/19 04:20:26;;;;;;;2.15;1.95;;;;;;;-0.66;86.17;96854.72;4842724;29;20060;-57
2021/12/19 04:22:53;;;;;;;4.50;2.42;;;;;;;-0.54;86.56;96868.00;4850848;29;20388;-57
2021/12/19 04:25:19;;;;;;;4.28;2.05;;;;;;;-0.60;86.87;96860.53;4850783;29;20034;-57
2021/12/19 04:27:45;;;;;;;7.47;2.45;;;;;;;-0.56;86.21;96856.19;4850670;29;20037;-58
2021/12/19 04:30:17;;;;;;;2.40;1.67;;;;;;;-0.58;86.16;96874.00;4850686;29;20026;-57
2021/12/19 04:32:46;;;;;;;7.95;2.20;;;;;;;-0.46;85.95;96849.19;4850986;29;20042;-57
2021/12/19 04:35:13;;;;;;;4.57;2.17;;;;;;;-0.53;86.40;96841.72;4850620;29;20052;-57
2021/12/19 04:40:31;;;;;;;2.97;2.20;;;;;;;-0.49;86.16;96834.84;4848874;29;20038;-56
2021/12/19 04:51:37;;;;;;;2.95;1.70;;;;;;;-0.46;85.92;96811.06;4853972;29;20082;-56
2021/12/19 04:56:48;;;;;;;3.97;2.13;;;;;;;-0.43;85.68;96795.72;4854106;29;20101;-56
2021/12/19 05:15:27;;;;;;;3.47;2.17;;;;;;;-0.41;84.90;96764.31;4838204;29;20346;-58
2021/12/19 05:17:55;;;;;;;4.43;2.25;;;;;;;-0.23;85.61;96762.16;4853932;29;20322;-59
2021/12/19 05:20:25;;;;;;;3.17;2.17;;;;;;;-0.08;85.10;96759.22;4852855;29;20104;-59
2021/12/19 05:22:54;;;;;;;3.35;2.40;;;;;;;-0.05;84.47;96761.69;4853740;29;20074;-58
2021/12/19 05:25:20;;;;;;;4.43;2.20;;;;;;;-0.14;83.76;96748.38;4851714;29;20037;-57
2021/12/19 05:28:04;;;;;;;2.97;2.40;;;;;;;-0.44;84.50;96692.38;4850003;29;20030;-57
2021/12/19 05:30:30;;;;;;;5.28;2.53;;;;;;;-0.08;84.34;96743.97;4850140;29;20076;-58
2021/12/19 05:32:56;;;;;;;3.50;2.75;;;;;;;0.02;84.94;96742.03;4849506;29;20041;-58
2021/12/19 05:35:44;;;;;;;2.80;2.25;;;;;;;-0.06;84.10;96743.94;4849284;29;20225;-58
2021/12/19 05:46:22;;;;;;;6.18;2.65;;;;;;;-0.01;84.92;96719.22;4853206;29;20073;-58
2021/12/19 05:48:48;;;;;;;7.03;2.58;;;;;;;0.06;85.16;96710.53;4851875;29;20305;-59
2021/12/19 05:51:13;;;;;;;5.85;2.70;;;;;;;0.07;84.91;96702.03;4852777;29;20050;-58
2021/12/19 05:53:39;;;;;;;3.70;2.67;;;;;;;0.12;84.58;96712.06;4852966;29;20094;-58
2021/12/19 05:56:05;;;;;;;7.63;3.05;;;;;;;0.06;84.47;96692.72;4852089;29;20297;-58
2021/12/19 05:58:30;;;;;;;4.07;3.10;;;;;;;0.11;84.55;96687.50;4846050;29;20057;-58
2021/12/19 06:00:56;;;;;;;4.63;3.17;;;;;;;0.12;84.56;96682.38;4846615;29;20113;-59
2021/12/19 06:03:22;;;;;;;5.82;2.72;;;;;;;0.20;84.49;96692.34;4847929;29;20038;-58
2021/12/19 06:05:47;;;;;;;6.18;3.30;;;;;;;0.11;85.16;96678.16;4835228;29;20032;-58
2021/12/19 06:08:13;;;;;;;6.28;3.17;;;;;;;0.02;85.11;96680.97;4849031;29;20234;-59
2021/12/19 06:10:39;;;;;;;5.45;3.25;;;;;;;0.06;85.13;96680.00;4846936;29;20553;-59
2021/12/19 06:13:04;;;;;;;8.88;2.90;;;;;;;0.19;84.84;96679.66;4836225;29;20259;-59
2021/12/19 06:15:30;;;;;;;4.63;2.90;;;;;;;-0.01;85.07;96658.16;4847141;29;20033;-59
2021/12/19 06:17:55;;;;;;;4.95;3.00;;;;;;;0.13;84.93;96670.50;4846421;29;20330;-59
2021/12/19 06:20:24;;;;;;;10.30;3.88;;;;;;;0.14;84.72;96665.34;4834409;29;20026;-58
2021/12/19 06:22:51;;;;;;;6.82;3.38;;;;;;;0.16;84.65;96657.69;4849438;29;20464;-58
2021/12/19 06:25:17;;;;;;;6.18;3.63;;;;;;;0.22;84.71;96654.94;4848644;29;20105;-58
2021/12/19 06:27:43;;;;;;;9.43;3.53;;;;;;;0.21;84.64;96635.47;4834001;29;20072;-57
2021/12/19 06:30:09;;;;;;;4.45;3.17;;;;;;;0.29;84.50;96648.78;4847650;29;20026;-56
2021/12/19 06:32:36;;;;;;;4.93;3.28;;;;;;;0.38;84.44;96647.69;4850824;29;20046;-57
2021/12/19 06:35:07;;;;;;;7.20;3.17;;;;;;;0.37;83.74;96640.94;4846556;29;20049;-57
2021/12/19 06:37:38;;;;;;;4.22;3.17;;;;;;;0.40;84.92;96638.31;4847149;29;20049;-57
2021/12/19 06:40:06;;;;;;;6.72;3.35;;;;;;;0.35;84.31;96622.31;4846096;29;20077;-56
2021/12/19 06:42:32;;;;;;;5.18;3.30;;;;;;;0.49;84.62;96632.91;4833767;29;20034;-56
2021/12/19 06:44:58;;;;;;;5.18;3.28;;;;;;;0.43;83.92;96627.16;4848360;29;20053;-58
2021/12/19 06:47:24;;;;;;;5.03;3.33;;;;;;;0.51;84.21;96618.44;4845346;29;20034;-56
2021/12/19 06:49:50;;;;;;;6.47;3.00;;;;;;;0.40;84.31;96617.94;4841334;29;20046;-58
2021/12/19 06:52:16;;;;;;;5.05;2.90;;;;;;;0.33;83.95;96612.19;4840536;29;20326;-57
2021/12/19 06:54:42;;;;;;;7.10;3.22;;;;;;;0.46;84.58;96610.09;4852055;29;20060;-57
2021/12/19 06:57:07;;;;;;;7.20;3.72;;;;;;;0.51;84.13;96605.72;4852074;29;20049;-57
2021/12/19 06:59:33;;;;;;;6.10;3.40;;;;;;;0.56;83.98;96605.56;4851579;29;20033;-58
2021/12/19 07:01:58;;;;;;;5.35;3.53;;;;;;;0.62;83.70;96604.53;4851573;29;20045;-58
2021/12/19 07:04:24;;;;;;;5.10;2.70;;;;;;;0.63;83.48;96590.94;4851230;29;20037;-57
2021/12/19 07:06:49;;;;;;;5.95;3.42;;;;;;;0.68;83.86;96591.59;4851296;29;20033;-57
2021/12/19 07:09:15;;;;;;;4.43;3.40;;;;;;;0.56;83.68;96592.00;4851101;29;20044;-57
2021/12/19 07:11:42;;;;;;;5.70;3.45;;;;;;;0.63;84.04;96585.84;4851159;29;20058;-57
2021/12/19 07:14:08;;;;;;;5.32;3.00;;;;;;;0.68;83.66;96582.25;4851459;29;20038;-57
2021/12/19 07:16:33;;;;;;;4.35;3.08;;;;;;;0.72;83.61;96589.81;4851200;29;20086;-57
2021/12/19 07:18:59;;;;;;;6.53;3.00;;;;;;;0.66;83.36;96581.47;4846333;29;20025;-57
2021/12/19 07:21:25;;;;;;;3.58;2.47;;;;;;;0.80;83.66;96586.13;4848022;29;20045;-57
2021/12/19 07:23:51;;;;;;;3.30;2.55;;;;;;;0.81;84.06;96569.09;4842556;29;20091;-57
2021/12/19 07:26:17;;;;;;;6.50;3.10;;;;;;;0.74;83.34;96581.22;4844362;29;20329;-56
2021/12/19 07:28:46;;;;;;;4.20;3.05;;;;;;;0.82;83.45;96580.97;4847219;29;20064;-57
2021/12/19 07:31:11;;;;;;;5.43;3.47;;;;;;;0.81;83.85;96567.41;4849464;29;20040;-57
2021/12/19 07:33:37;;;;;;;6.45;3.47;;;;;;;0.89;83.47;96571.41;4850079;29;20050;-56
2021/12/19 07:36:03;;;;;;;7.82;3.45;;;;;;;0.69;84.10;96552.53;4850448;29;20036;-57
2021/12/19 07:38:35;;;;;;;7.35;3.30;;;;;;;0.88;84.03;96567.19;4849483;29;20088;-56
2021/12/19 07:41:02;;;;;;;4.25;3.35;;;;;;;0.89;84.73;96563.78;4845811;29;20053;-57
2021/12/19 07:43:28;;;;;;;4.72;3.15;;;;;;;0.92;84.55;96546.66;4850567;29;20097;-57
2021/12/19 07:45:55;;;;;;;7.30;3.30;;;;;;;0.91;84.63;96559.44;4850870;29;20057;-57
2021/12/19 07:48:20;;;;;;;8.07;4.18;;;;;;;0.81;84.89;96554.69;4834753;29;20078;-57
2021/12/19 07:50:46;;;;;;;4.50;3.47;;;;;;;0.89;85.28;96556.94;4833487;29;20030;-56
2021/12/19 07:53:12;;;;;;;7.75;3.83;;;;;;;0.84;85.48;96546.06;4850406;29;20038;-57
2021/12/19 07:55:38;;;;;;;8.13;3.92;;;;;;;0.92;85.38;96551.75;4850549;29;20041;-57
2021/12/19 07:58:03;;;;;;;4.43;3.10;;;;;;;0.79;86.00;96537.78;4848892;29;20037;-58
2021/12/19 08:00:29;;;;;;;5.85;3.70;;;;;;;0.88;85.59;96534.09;4834727;29;20041;-57
2021/12/19 08:02:55;;;;;;;5.93;4.00;;;;;;;0.95;86.09;96540.63;4850626;29;20050;-56
2021/12/19 08:05:24;;;;;;;3.88;3.22;;;;;;;0.95;86.00;96525.34;4849934;29;20022;-56
2021/12/19 08:07:55;;;;;;;6.15;3.70;;;;;;;1.02;85.40;96527.63;4849913;29;20058;-57
2021/12/19 08:12:47;;;;;;;6.45;3.55;;;;;;;1.01;86.08;96520.88;4834968;29;20157;-56
2021/12/19 08:15:15;;;;;;;9.82;4.20;;;;;;;1.09;85.20;96522.31;4850395;29;20302;-56
2021/12/19 08:17:41;;;;;;;8.07;4.07;;;;;;;1.08;85.52;96516.38;4850086;29;20056;-57
2021/12/19 08:20:11;;;;;;;7.55;3.95;;;;;;;1.10;85.70;96534.16;4850148;29;20044;-55
2021/12/19 08:22:37;;;;;;;7.97;4.15;;;;;;;1.09;85.76;96517.22;4850656;29;20317;-56
2021/12/19 08:25:04;;;;;;;8.05;4.20;;;;;;;1.05;85.94;96491.00;4853580;29;20120;-57
2021/12/19 08:27:30;;;;;;;6.80;3.67;;;;;;;1.25;85.87;96509.88;4853848;29;20082;-56
2021/12/19 08:29:55;;;;;;;6.63;3.83;;;;;;;1.19;85.85;96516.84;4853943;29;20026;-57
2021/12/19 08:32:22;;;;;;;6.13;4.05;;;;;;;1.09;85.72;96504.50;4854039;29;20041;-57
2021/12/19 08:34:48;;;;;;;7.38;4.05;;;;;;;1.17;86.06;96500.78;4838364;29;20070;-56
2021/12/19 08:37:15;;;;;;;5.97;4.25;;;;;;;1.24;86.27;96503.09;4853837;29;20279;-57
2021/12/19 08:39:42;;;;;;;7.35;4.00;;;;;;;1.21;86.13;96498.94;4853892;29;20040;-56
2021/12/19 08:42:09;;;;;;;7.30;4.07;;;;;;;1.33;86.19;96502.78;4854362;29;20396;-56
2021/12/19 08:44:35;;;;;;;8.98;4.10;;;;;;;1.35;85.38;96493.34;4849746;29;20033;-57
2021/12/19 08:47:01;;;;;;;6.43;3.55;;;;;;;1.32;85.11;96489.19;4850757;29;20109;-57
2021/12/19 08:49:27;;;;;;;6.75;3.80;;;;;;;1.39;85.83;96494.91;4837380;29;20037;-57
2021/12/19 08:51:53;;;;;;;8.18;4.28;;;;;;;1.30;85.39;96490.16;4853541;29;20041;-56
2021/12/19 08:54:19;;;;;;;12.65;4.60;;;;;;;1.34;85.56;96491.69;4849610;29;20037;-57
2021/12/19 08:56:44;;;;;;;7.75;4.00;;;;;;;1.34;85.60;96482.34;4845989;29;20336;-57
2021/12/19 08:59:11;;;;;;;7.80;4.35;;;;;;;1.45;85.49;96479.38;4852514;29;20022;-56
2021/12/19 09:01:37;;;;;;;8.52;4.40;;;;;;;1.52;85.31;96477.44;4849328;29;20042;-56
2021/12/19 09:04:03;;;;;;;7.10;4.13;;;;;;;1.41;85.03;96480.41;4850204;29;20053;-56
2021/12/19 09:06:29;;;;;;;9.45;5.00;;;;;;;1.20;84.85;96441.22;4849118;29;20039;-57
2021/12/19 09:08:55;;;;;;;10.73;4.72;;;;;;;1.47;84.94;96469.97;4850489;29;20097;-56
2021/12/19 09:11:21;;;;;;;13.07;4.68;;;;;;;1.41;84.16;96449.81;4848707;29;20065;-56
2021/12/19 09:13:47;;;;;;;6.85;4.75;;;;;;;1.65;84.62;96462.50;4850499;29;20044;-57
2021/12/19 09:16:12;;;;;;;17.77;7.80;;;;;;;1.61;84.18;96461.78;4846846;29;20019;-56
2021/12/19 09:18:38;;;;;;;13.05;4.65;;;;;;;1.67;84.64;96458.19;4846975;29;20030;-55
2021/12/19 09:21:04;;;;;;;7.95;3.97;;;;;;;1.58;84.03;96451.69;4848022;29;20319;-56
2021/12/19 09:23:29;;;;;;;11.40;4.50;;;;;;;1.65;83.62;96440.34;4848469;29;20046;-56
2021/12/19 09:25:55;;;;;;;11.55;4.45;;;;;;;1.51;83.68;96412.00;4850100;29;20030;-56
2021/12/19 09:28:20;;;;;;;10.70;4.15;;;;;;;1.73;83.40;96440.09;4847586;29;20038;-57
2021/12/19 09:30:46;;;;;;;7.57;4.30;;;;;;;1.52;82.58;96428.97;4847942;29;20351;-57
2021/12/19 09:33:12;;;;;;;7.40;4.03;;;;;;;1.70;83.76;96435.91;4846449;29;20316;-56
2021/12/19 09:35:38;;;;;;;9.80;4.47;;;;;;;1.70;83.42;96432.56;4853683;29;20097;-56
2021/12/19 09:38:05;;;;;;;9.27;4.25;;;;;;;1.65;83.29;96437.00;4854253;29;20115;-55
2021/12/19 09:40:36;;;;;;;6.70;3.63;;;;;;;1.63;83.03;96433.69;4852661;29;20097;-56
2021/12/19 09:43:08;;;;;;;7.47;3.40;;;;;;;1.19;83.35;96376.66;4853097;29;20044;-56
2021/12/19 09:45:34;;;;;;;7.43;3.50;;;;;;;1.66;83.33;96434.38;4851649;29;20029;-56
2021/12/19 09:48:00;;;;;;;24.27;12.73;;;;;;;1.67;83.91;96430.13;4844624;29;20026;-56
2021/12/19 09:50:28;;;;;;;7.07;3.80;;;;;;;1.29;83.33;96371.22;4821045;29;20037;-57
2021/12/19 09:52:54;;;;;;;6.30;3.60;;;;;;;1.66;83.89;96418.25;4852917;29;20315;-57
2021/12/19 09:55:21;;;;;;;6.15;3.60;;;;;;;1.68;83.76;96424.13;4853337;29;20037;-57
2021/12/19 09:57:53;;;;;;;8.88;3.97;;;;;;;1.72;83.54;96415.44;4852721;29;20195;-56
2021/12/19 10:00:20;;;;;;;6.32;3.28;;;;;;;1.61;83.16;96415.03;4852756;29;20045;-56
2021/12/19 10:02:45;;;;;;;8.13;3.70;;;;;;;1.66;83.25;96415.72;4837210;29;20226;-56
2021/12/19 10:05:23;;;;;;;6.97;3.75;;;;;;;1.59;83.09;96389.59;4852427;29;20034;-56
2021/12/19 10:07:54;;;;;;;5.65;3.63;;;;;;;1.35;83.09;96348.91;4852703;29;20056;-57
2021/12/19 10:10:33;;;;;;;;;;;;;;;1.83;83.21;96412.50;4852913;29;20076;-56
2021/12/19 10:12:58;;;;;;;6.85;3.20;;;;;;;1.50;82.58;96355.09;4837592;29;19943;-56
2021/12/19 10:15:29;;;;;;;6.20;3.05;;;;;;;1.82;82.78;96396.34;4849235;29;20038;-56
2021/12/19 10:18:10;;;;;;;7.97;3.22;;;;;;;1.93;82.48;96397.66;4846307;29;20191;-57
2021/12/19 10:20:57;;;;;;;7.78;3.53;;;;;;;2.10;82.99;96374.81;4850777;29;20060;-57
2021/12/19 10:23:26;;;;;;;6.78;3.85;;;;;;;1.96;82.49;96329.44;4829973;29;20034;-57
2021/12/19 10:26:04;;;;;;;7.03;3.15;;;;;;;2.28;81.11;96387.69;4845207;29;20037;-56
2021/12/19 10:28:30;;;;;;;8.52;3.53;;;;;;;2.36;81.82;96370.34;4843886;29;20060;-57
2021/12/19 10:31:01;;;;;;;6.40;3.15;;;;;;;2.04;81.42;96311.28;4849910;29;20082;-56
2021/12/19 10:33:31;;;;;;;6.47;3.40;;;;;;;2.43;81.37;96389.63;4849795;29;20042;-57
2021/12/19 10:36:03;;;;;;;8.05;3.70;;;;;;;2.42;81.32;96382.84;4848861;29;20040;-56
2021/12/19 10:38:42;;;;;;;6.20;3.13;;;;;;;2.01;81.60;96309.69;4848816;29;20038;-57
2021/12/19 10:41:15;;;;;;;7.20;3.20;;;;;;;1.99;82.45;96311.44;4846815;29;20383;-57
2021/12/19 10:45:29;;;;;;;6.40;2.90;;;;;;;1.89;82.64;96312.72;4845719;29;20255;-56
2021/12/19 10:46:54;;;;;;;7.82;2.67;;;;;;;2.24;82.78;96367.41;4846983;29;20045;-57
2021/12/19 10:49:29;;;;;;;10.02;3.15;;;;;;;2.35;82.68;96368.69;4833903;29;20018;-56
2021/12/19 10:52:01;;;;;;;13.20;3.40;;;;;;;1.99;83.28;96323.41;4846371;29;20309;-56
2021/12/19 10:54:28;;;;;;;8.85;3.97;;;;;;;2.06;83.55;96363.06;4846382;29;20061;-56
2021/12/19 10:57:06;;;;;;;8.38;3.92;;;;;;;2.14;84.08;96366.16;4833082;29;20053;-56
2021/12/19 10:59:34;;;;;;;8.48;3.10;;;;;;;2.24;83.70;96369.97;4834603;29;20347;-56
2021/12/19 11:01:59;;;;;;;9.65;3.80;;;;;;;2.15;84.15;96362.72;4849009;29;20211;-57
2021/12/19 11:04:25;;;;;;;11.38;3.45;;;;;;;2.09;84.57;96357.84;4846105;29;20101;-56
2021/12/19 11:06:54;;;;;;;7.40;3.67;;;;;;;2.15;84.79;96362.72;4835091;29;20033;-57
2021/12/19 11:09:22;;;;;;;13.45;3.63;;;;;;;1.82;84.51;96299.41;4835148;29;20083;-56
2021/12/19 11:12:06;;;;;;;6.65;3.38;;;;;;;2.23;84.27;96362.38;4846140;29;20258;-57
2021/12/19 11:14:39;;;;;;;5.55;3.15;;;;;;;2.19;84.48;96348.06;4834256;29;20038;-56
2021/12/19 11:17:15;;;;;;;10.35;2.70;;;;;;;2.27;84.28;96352.84;4847683;29;20038;-56
2021/12/19 11:19:41;;;;;;;7.07;2.53;;;;;;;2.15;84.45;96352.50;4846286;29;20312;-56
2021/12/19 11:22:07;;;;;;;5.07;3.00;;;;;;;2.06;83.69;96350.31;4847239;29;20029;-57
2021/12/19 11:24:33;;;;;;;6.07;2.80;;;;;;;1.97;84.76;96358.38;4833911;29;20026;-57
2021/12/19 11:27:01;;;;;;;8.95;3.50;;;;;;;2.09;84.82;96344.25;4841266;29;20041;-58
2021/12/19 11:29:27;;;;;;;7.00;2.70;;;;;;;2.16;84.65;96346.47;4847682;29;20053;-56
2021/12/19 11:31:58;;;;;;;6.03;3.10;;;;;;;2.07;84.43;96334.94;4855613;29;20074;-56
2021/12/19 11:34:45;;;;;;;6.07;2.30;;;;;;;2.18;84.31;96344.72;4832575;29;20268;-56
2021/12/19 11:37:13;;;;;;;9.35;3.50;;;;;;;2.03;84.47;96332.59;4849815;29;20034;-56
2021/12/19 11:39:48;;;;;;;7.20;3.20;;;;;;;1.73;84.97;96284.50;4847636;29;20097;-56
2021/12/19 11:42:15;;;;;;;7.20;2.85;;;;;;;1.75;84.84;96287.78;4847202;29;20326;-55
2021/12/19 11:45:02;;;;;;;6.78;2.90;;;;;;;1.65;84.84;96286.53;4844423;29;20034;-56
2021/12/19 11:47:51;;;;;;;4.43;2.28;;;;;;;1.99;84.50;96348.91;4845086;29;20108;-57
2021/12/19 11:50:26;;;;;;;6.25;2.15;;;;;;;1.62;84.56;96289.19;4844257;29;20030;-58
2021/12/19 11:52:55;;;;;;;7.90;2.85;;;;;;;2.02;85.32;96367.50;4847321;29;20326;-55
2021/12/19 11:55:36;;;;;;;4.30;2.58;;;;;;;2.01;84.66;96372.63;4834496;29;20041;-56
2021/12/19 11:58:08;;;;;;;6.97;2.75;;;;;;;2.02;84.89;96339.41;4850240;29;20109;-57
2021/12/19 12:00:35;;;;;;;5.18;3.05;;;;;;;1.96;84.81;96349.03;4845085;29;20053;-60
2021/12/19 12:03:13;;;;;;;7.55;2.63;;;;;;;2.02;84.46;96344.53;4835361;29;20029;-56
2021/12/19 12:05:44;;;;;;;5.72;2.95;;;;;;;2.03;84.64;96353.00;4849736;29;20030;-55
2021/12/19 12:08:18;;;;;;;7.78;2.78;;;;;;;1.95;84.54;96345.63;4850594;29;20209;-55
2021/12/19 12:10:54;;;;;;;5.22;2.40;;;;;;;2.02;85.02;96339.41;4850003;29;20310;-56
2021/12/19 12:13:29;;;;;;;4.82;2.60;;;;;;;2.07;84.29;96342.59;4835390;29;20489;-56
2021/12/19 12:16:04;;;;;;;10.23;3.30;;;;;;;1.87;84.30;96343.41;4850715;29;20251;-56
2021/12/19 12:18:38;;;;;;;5.57;2.50;;;;;;;1.86;84.85;96331.53;4850679;29;20040;-56
2021/12/19 12:21:28;;;;;;;11.60;2.33;;;;;;;1.99;83.62;96338.69;4834950;29;20030;-56
2021/12/19 12:24:04;;;;;;;4.75;2.13;;;;;;;1.83;83.33;96313.00;4849917;29;20030;-56
2021/12/19 12:26:48;;;;;;;6.45;2.60;;;;;;;1.71;83.18;96282.00;4850560;29;20021;-55
2021/12/19 12:29:14;;;;;;;7.18;2.20;;;;;;;1.84;82.89;96325.69;4850599;29;20034;-57
2021/12/19 12:31:42;;;;;;;5.82;2.83;;;;;;;2.01;83.85;96339.47;4850590;29;20341;-55
2021/12/19 12:34:10;;;;;;;7.10;2.20;;;;;;;1.89;83.26;96321.22;4849460;29;20095;-57
2021/12/19 12:36:36;;;;;;;4.40;2.10;;;;;;;1.97;83.56;96337.94;4850356;29;20074;-55
2021/12/19 12:39:11;;;;;;;5.47;2.35;;;;;;;1.96;83.32;96336.28;4850334;29;20124;-57
2021/12/19 12:41:52;;;;;;;4.65;2.35;;;;;;;1.96;83.33;96326.06;4850472;29;20210;-56
2021/12/19 12:44:20;;;;;;;6.15;2.20;;;;;;;1.82;81.95;96327.47;4850373;29;20048;-56
2021/12/19 12:46:46;;;;;;;6.25;2.20;;;;;;;1.92;82.29;96344.97;4849666;29;20029;-55